sensor_id;sensor_type;location;lat;lon;timestamp;temperature;humidity
14301;DHT22;7234;59.306;18.024;2023-11-19T00:00:53;-3.10;99.90
14301;DHT22;7234;59.306;18.024;2023-11-19T00:03:20;-3.10;99.90
14301;DHT22;7234;59.306;18.024;2023-11-19T00:05:48;-3.10;99.90
14301;DHT22;7234;59.306;18.024;2023-11-19T00:08:16;-3.10;99.90
14301;DHT22;7234;59.306;18.024;2023-11-19T00:10:43;-3.00;99.90
14301;DHT22;7234;59.306;18.024;2023-11-19T00:13:13;-3.00;99.90
14301;DHT22;7234;59.306;18.024;2023-11-19T00:15:40;-2.80;99.90
14301;DHT22;7234;59.306;18.024;2023-11-19T00:18:07;-2.90;99.90
14301;DHT22;7234;59.306;18.024;2023-11-19T00:20:34;-2.90;99.90
14301;DHT22;7234;59.306;18.024;2023-11-19T00:23:01;-2.80;99.90
14301;DHT22;7234;59.306;18.024;2023-11-19T00:25:28;-2.80;99.90
14301;DHT22;7234;59.306;18.024;2023-11-19T00:27:55;-2.70;99.90
14301;DHT22;7234;59.306;18.024;2023-11-19T00:30:24;-2.70;99.90
14301;DHT22;7234;59.306;18.024;2023-11-19T00:32:51;-2.70;99.90
14301;DHT22;7234;59.306;18.024;2023-11-19T00:35:18;-2.70;99.90
14301;DHT22;7234;59.306;18.024;2023-11-19T00:37:45;-2.70;99.90
14301;DHT22;7234;59.306;18.024;2023-11-19T00:40:13;-2.70;99.90
14301;DHT22;7234;59.306;18.024;2023-11-19T00:42:41;-2.70;99.90
14301;DHT22;7234;59.306;18.024;2023-11-19T00:45:09;-2.80;99.90
14301;DHT22;7234;59.306;18.024;2023-11-19T00:47:39;-3.00;99.90
14301;DHT22;7234;59.306;18.024;2023-11-19T00:50:07;-3.00;99.90
14301;DHT22;7234;59.306;18.024;2023-11-19T00:52:35;-2.90;99.90
14301;DHT22;7234;59.306;18.024;2023-11-19T00:55:03;-2.90;99.90
14301;DHT22;7234;59.306;18.024;2023-11-19T00:57:31;-2.90;99.90
14301;DHT22;7234;59.306;18.024;2023-11-19T00:59:58;-2.90;99.90
14301;DHT22;7234;59.306;18.024;2023-11-19T01:02:25;-2.90;99.90
14301;DHT22;7234;59.306;18.024;2023-11-19T01:04:54;-2.90;99.90
14301;DHT22;7234;59.306;18.024;2023-11-19T01:07:21;-2.70;99.90
14301;DHT22;7234;59.306;18.024;2023-11-19T01:09:49;-2.80;99.90
14301;DHT22;7234;59.306;18.024;2023-11-19T01:12:17;-2.60;99.90
14301;DHT22;7234;59.306;18.024;2023-11-19T01:14:44;-2.70;99.90
14301;DHT22;7234;59.306;18.024;2023-11-19T01:17:11;-2.70;99.90
14301;DHT22;7234;59.306;18.024;2023-11-19T01:19:38;-2.90;99.90
14301;DHT22;7234;59.306;18.024;2023-11-19T01:22:06;-3.00;99.90
14301;DHT22;7234;59.306;18.024;2023-11-19T01:24:36;-2.90;99.90
14301;DHT22;7234;59.306;18.024;2023-11-19T01:27:03;-2.90;99.90
14301;DHT22;7234;59.306;18.024;2023-11-19T01:29:34;-2.90;99.90
14301;DHT22;7234;59.306;18.024;2023-11-19T01:32:00;-2.90;99.90
14301;DHT22;7234;59.306;18.024;2023-11-19T01:34:28;-2.90;99.90
14301;DHT22;7234;59.306;18.024;2023-11-19T01:36:54;-3.10;99.90
14301;DHT22;7234;59.306;18.024;2023-11-19T01:39:24;-3.10;99.90
14301;DHT22;7234;59.306;18.024;2023-11-19T01:41:51;-3.10;99.90
14301;DHT22;7234;59.306;18.024;2023-11-19T01:44:20;-3.10;99.90
14301;DHT22;7234;59.306;18.024;2023-11-19T01:46:48;-3.00;99.90
14301;DHT22;7234;59.306;18.024;2023-11-19T01:49:15;-3.10;99.90
14301;DHT22;7234;59.306;18.024;2023-11-19T01:51:43;-3.10;99.90
14301;DHT22;7234;59.306;18.024;2023-11-19T01:54:11;-3.10;99.90
14301;DHT22;7234;59.306;18.024;2023-11-19T01:56:40;-3.10;99.90
14301;DHT22;7234;59.306;18.024;2023-11-19T01:59:08;-3.10;99.90
14301;DHT22;7234;59.306;18.024;2023-11-19T02:01:36;-3.10;99.90
14301;DHT22;7234;59.306;18.024;2023-11-19T02:04:05;-3.10;99.90
14301;DHT22;7234;59.306;18.024;2023-11-19T02:06:34;-3.00;99.90
14301;DHT22;7234;59.306;18.024;2023-11-19T02:09:05;-3.20;99.90
14301;DHT22;7234;59.306;18.024;2023-11-19T02:11:33;-3.20;99.90
14301;DHT22;7234;59.306;18.024;2023-11-19T02:14:02;-3.30;99.90
14301;DHT22;7234;59.306;18.024;2023-11-19T02:16:30;-3.20;99.90
14301;DHT22;7234;59.306;18.024;2023-11-19T02:18:57;-3.30;99.90
14301;DHT22;7234;59.306;18.024;2023-11-19T02:21:24;-3.20;99.90
14301;DHT22;7234;59.306;18.024;2023-11-19T02:23:51;-3.30;99.90
14301;DHT22;7234;59.306;18.024;2023-11-19T02:26:25;-3.10;99.90
14301;DHT22;7234;59.306;18.024;2023-11-19T02:28:55;-3.10;99.90
14301;DHT22;7234;59.306;18.024;2023-11-19T02:31:22;-3.20;99.90
14301;DHT22;7234;59.306;18.024;2023-11-19T02:33:49;-3.30;99.90
14301;DHT22;7234;59.306;18.024;2023-11-19T02:36:17;-3.40;99.90
14301;DHT22;7234;59.306;18.024;2023-11-19T02:38:44;-3.00;99.90
14301;DHT22;7234;59.306;18.024;2023-11-19T02:41:11;-3.00;99.90
14301;DHT22;7234;59.306;18.024;2023-11-19T02:43:38;-3.20;99.90
14301;DHT22;7234;59.306;18.024;2023-11-19T02:46:07;-3.30;99.90
14301;DHT22;7234;59.306;18.024;2023-11-19T02:48:34;-3.30;99.90
14301;DHT22;7234;59.306;18.024;2023-11-19T02:51:01;-3.40;99.90
14301;DHT22;7234;59.306;18.024;2023-11-19T02:53:29;-3.30;99.90
14301;DHT22;7234;59.306;18.024;2023-11-19T02:55:57;-3.30;99.90
14301;DHT22;7234;59.306;18.024;2023-11-19T02:58:31;-3.30;99.90
14301;DHT22;7234;59.306;18.024;2023-11-19T03:01:00;-3.30;99.90
14301;DHT22;7234;59.306;18.024;2023-11-19T03:03:37;-3.20;99.90
14301;DHT22;7234;59.306;18.024;2023-11-19T03:06:06;-3.30;99.90
14301;DHT22;7234;59.306;18.024;2023-11-19T03:08:35;-3.30;99.90
14301;DHT22;7234;59.306;18.024;2023-11-19T03:11:02;-3.10;99.90
14301;DHT22;7234;59.306;18.024;2023-11-19T03:13:30;-3.20;99.90
14301;DHT22;7234;59.306;18.024;2023-11-19T03:15:57;-3.20;99.90
14301;DHT22;7234;59.306;18.024;2023-11-19T03:18:24;-3.10;99.90
14301;DHT22;7234;59.306;18.024;2023-11-19T03:20:53;-3.20;99.90
14301;DHT22;7234;59.306;18.024;2023-11-19T03:23:21;-3.20;99.90
14301;DHT22;7234;59.306;18.024;2023-11-19T03:25:48;-3.30;99.90
14301;DHT22;7234;59.306;18.024;2023-11-19T03:28:15;-3.20;99.90
14301;DHT22;7234;59.306;18.024;2023-11-19T03:30:42;-3.20;99.90
14301;DHT22;7234;59.306;18.024;2023-11-19T03:33:09;-3.30;99.90
14301;DHT22;7234;59.306;18.024;2023-11-19T03:35:36;-3.30;99.90
14301;DHT22;7234;59.306;18.024;2023-11-19T03:38:04;-3.20;99.90
14301;DHT22;7234;59.306;18.024;2023-11-19T03:40:31;-3.30;99.90
14301;DHT22;7234;59.306;18.024;2023-11-19T03:42:59;-3.30;99.90
14301;DHT22;7234;59.306;18.024;2023-11-19T03:45:25;-3.30;99.90
14301;DHT22;7234;59.306;18.024;2023-11-19T03:47:52;-3.20;99.90
14301;DHT22;7234;59.306;18.024;2023-11-19T03:50:21;-3.30;99.90
14301;DHT22;7234;59.306;18.024;2023-11-19T03:52:48;-3.30;99.90
14301;DHT22;7234;59.306;18.024;2023-11-19T03:55:16;-3.20;99.90
14301;DHT22;7234;59.306;18.024;2023-11-19T03:57:43;-3.30;99.90
14301;DHT22;7234;59.306;18.024;2023-11-19T04:00:10;-3.30;99.90
14301;DHT22;7234;59.306;18.024;2023-11-19T04:02:39;-3.30;99.90
14301;DHT22;7234;59.306;18.024;2023-11-19T04:05:07;-3.20;99.90
14301;DHT22;7234;59.306;18.024;2023-11-19T04:07:35;-3.30;99.90
14301;DHT22;7234;59.306;18.024;2023-11-19T04:10:03;-3.30;99.90
14301;DHT22;7234;59.306;18.024;2023-11-19T04:12:31;-3.30;99.90
14301;DHT22;7234;59.306;18.024;2023-11-19T04:14:58;-3.30;99.90
14301;DHT22;7234;59.306;18.024;2023-11-19T04:17:25;-3.20;99.90
14301;DHT22;7234;59.306;18.024;2023-11-19T04:19:52;-3.20;99.90
14301;DHT22;7234;59.306;18.024;2023-11-19T04:22:19;-3.30;99.90
14301;DHT22;7234;59.306;18.024;2023-11-19T04:24:46;-3.30;99.90
14301;DHT22;7234;59.306;18.024;2023-11-19T04:27:14;-3.20;99.90
14301;DHT22;7234;59.306;18.024;2023-11-19T04:29:42;-3.20;99.90
14301;DHT22;7234;59.306;18.024;2023-11-19T04:32:11;-3.20;99.90
14301;DHT22;7234;59.306;18.024;2023-11-19T04:34:38;-3.20;99.90
14301;DHT22;7234;59.306;18.024;2023-11-19T04:37:05;-3.20;99.90
14301;DHT22;7234;59.306;18.024;2023-11-19T04:39:32;-3.20;99.90
14301;DHT22;7234;59.306;18.024;2023-11-19T04:41:59;-3.20;99.90
14301;DHT22;7234;59.306;18.024;2023-11-19T04:44:26;-3.10;99.90
14301;DHT22;7234;59.306;18.024;2023-11-19T04:46:54;-3.10;99.90
14301;DHT22;7234;59.306;18.024;2023-11-19T04:49:21;-3.10;99.90
14301;DHT22;7234;59.306;18.024;2023-11-19T04:51:48;-3.00;99.90
14301;DHT22;7234;59.306;18.024;2023-11-19T04:54:16;-3.00;99.90
14301;DHT22;7234;59.306;18.024;2023-11-19T04:56:45;-3.00;99.90
14301;DHT22;7234;59.306;18.024;2023-11-19T04:59:12;-3.00;99.90
14301;DHT22;7234;59.306;18.024;2023-11-19T05:01:39;-2.80;99.90
14301;DHT22;7234;59.306;18.024;2023-11-19T05:04:08;-2.90;99.90
14301;DHT22;7234;59.306;18.024;2023-11-19T05:06:36;-3.00;99.90
14301;DHT22;7234;59.306;18.024;2023-11-19T05:09:03;-3.10;99.90
14301;DHT22;7234;59.306;18.024;2023-11-19T05:11:33;-3.00;99.90
14301;DHT22;7234;59.306;18.024;2023-11-19T05:14:02;-3.00;99.90
14301;DHT22;7234;59.306;18.024;2023-11-19T05:16:30;-3.00;99.90
14301;DHT22;7234;59.306;18.024;2023-11-19T05:18:58;-2.90;99.90
14301;DHT22;7234;59.306;18.024;2023-11-19T05:21:26;-3.10;99.90
14301;DHT22;7234;59.306;18.024;2023-11-19T05:23:53;-3.10;99.90
14301;DHT22;7234;59.306;18.024;2023-11-19T05:26:24;-2.90;99.90
14301;DHT22;7234;59.306;18.024;2023-11-19T05:28:51;-3.00;99.90
14301;DHT22;7234;59.306;18.024;2023-11-19T05:31:18;-3.00;99.90
14301;DHT22;7234;59.306;18.024;2023-11-19T05:33:45;-2.90;99.90
14301;DHT22;7234;59.306;18.024;2023-11-19T05:36:13;-2.90;99.90
14301;DHT22;7234;59.306;18.024;2023-11-19T05:38:41;-2.90;99.90
14301;DHT22;7234;59.306;18.024;2023-11-19T05:41:08;-2.80;99.90
14301;DHT22;7234;59.306;18.024;2023-11-19T05:43:35;-2.70;99.90
14301;DHT22;7234;59.306;18.024;2023-11-19T05:46:03;-2.80;99.90
14301;DHT22;7234;59.306;18.024;2023-11-19T05:48:30;-2.80;99.90
14301;DHT22;7234;59.306;18.024;2023-11-19T05:50:57;-2.80;99.90
14301;DHT22;7234;59.306;18.024;2023-11-19T05:53:25;-2.80;99.90
14301;DHT22;7234;59.306;18.024;2023-11-19T05:55:54;-2.70;99.90
14301;DHT22;7234;59.306;18.024;2023-11-19T05:58:24;-2.70;99.90
14301;DHT22;7234;59.306;18.024;2023-11-19T06:00:54;-2.70;99.90
14301;DHT22;7234;59.306;18.024;2023-11-19T06:03:21;-2.60;99.90
14301;DHT22;7234;59.306;18.024;2023-11-19T06:05:49;-2.70;99.90
14301;DHT22;7234;59.306;18.024;2023-11-19T06:08:16;-2.70;99.90
14301;DHT22;7234;59.306;18.024;2023-11-19T06:10:45;-2.60;99.90
14301;DHT22;7234;59.306;18.024;2023-11-19T06:13:14;-2.60;99.90
14301;DHT22;7234;59.306;18.024;2023-11-19T06:15:41;-2.50;99.90
14301;DHT22;7234;59.306;18.024;2023-11-19T06:18:09;-2.70;99.90
14301;DHT22;7234;59.306;18.024;2023-11-19T06:20:38;-2.70;99.90
14301;DHT22;7234;59.306;18.024;2023-11-19T06:23:05;-2.70;99.90
14301;DHT22;7234;59.306;18.024;2023-11-19T06:25:32;-2.60;99.90
14301;DHT22;7234;59.306;18.024;2023-11-19T06:28:01;-2.60;99.90
14301;DHT22;7234;59.306;18.024;2023-11-19T06:30:29;-2.60;99.90
14301;DHT22;7234;59.306;18.024;2023-11-19T06:32:58;-2.60;99.90
14301;DHT22;7234;59.306;18.024;2023-11-19T06:35:25;-2.60;99.90
14301;DHT22;7234;59.306;18.024;2023-11-19T06:37:52;-2.70;99.90
14301;DHT22;7234;59.306;18.024;2023-11-19T06:40:19;-2.70;99.90
14301;DHT22;7234;59.306;18.024;2023-11-19T06:42:46;-2.70;99.90
14301;DHT22;7234;59.306;18.024;2023-11-19T06:45:13;-2.70;99.90
14301;DHT22;7234;59.306;18.024;2023-11-19T06:47:41;-2.70;99.90
14301;DHT22;7234;59.306;18.024;2023-11-19T06:50:08;-2.70;99.90
14301;DHT22;7234;59.306;18.024;2023-11-19T06:52:37;-2.60;99.90
14301;DHT22;7234;59.306;18.024;2023-11-19T06:55:06;-2.60;99.90
14301;DHT22;7234;59.306;18.024;2023-11-19T06:57:33;-2.70;99.90
14301;DHT22;7234;59.306;18.024;2023-11-19T07:00:00;-2.70;99.90
14301;DHT22;7234;59.306;18.024;2023-11-19T07:02:27;-2.70;99.90
14301;DHT22;7234;59.306;18.024;2023-11-19T07:04:55;-2.70;99.90
14301;DHT22;7234;59.306;18.024;2023-11-19T07:07:22;-2.80;99.90
14301;DHT22;7234;59.306;18.024;2023-11-19T07:09:50;-2.80;99.90
14301;DHT22;7234;59.306;18.024;2023-11-19T07:12:16;-2.80;99.90
14301;DHT22;7234;59.306;18.024;2023-11-19T07:14:44;-2.80;99.90
14301;DHT22;7234;59.306;18.024;2023-11-19T07:17:12;-2.80;99.90
14301;DHT22;7234;59.306;18.024;2023-11-19T07:19:39;-2.70;99.90
14301;DHT22;7234;59.306;18.024;2023-11-19T07:22:07;-2.70;99.90
14301;DHT22;7234;59.306;18.024;2023-11-19T07:24:34;-2.60;99.90
14301;DHT22;7234;59.306;18.024;2023-11-19T07:27:01;-2.60;99.90
14301;DHT22;7234;59.306;18.024;2023-11-19T07:29:29;-2.50;99.90
14301;DHT22;7234;59.306;18.024;2023-11-19T07:31:57;-2.50;99.90
14301;DHT22;7234;59.306;18.024;2023-11-19T07:34:24;-2.40;99.90
14301;DHT22;7234;59.306;18.024;2023-11-19T07:36:51;-2.50;99.90
14301;DHT22;7234;59.306;18.024;2023-11-19T07:39:19;-2.40;99.90
14301;DHT22;7234;59.306;18.024;2023-11-19T07:41:47;-2.50;99.90
14301;DHT22;7234;59.306;18.024;2023-11-19T07:44:15;-2.50;99.90
14301;DHT22;7234;59.306;18.024;2023-11-19T07:46:42;-2.40;99.90
14301;DHT22;7234;59.306;18.024;2023-11-19T07:49:10;-2.40;99.90
14301;DHT22;7234;59.306;18.024;2023-11-19T07:51:38;-2.40;99.90
14301;DHT22;7234;59.306;18.024;2023-11-19T07:54:07;-2.40;99.90
14301;DHT22;7234;59.306;18.024;2023-11-19T07:56:35;-2.30;99.90
14301;DHT22;7234;59.306;18.024;2023-11-19T07:59:03;-2.40;99.90
14301;DHT22;7234;59.306;18.024;2023-11-19T08:01:30;-2.40;99.90
14301;DHT22;7234;59.306;18.024;2023-11-19T08:03:57;-2.40;99.90
14301;DHT22;7234;59.306;18.024;2023-11-19T08:06:24;-2.50;99.90
14301;DHT22;7234;59.306;18.024;2023-11-19T08:08:51;-2.50;99.90
14301;DHT22;7234;59.306;18.024;2023-11-19T08:11:18;-2.60;99.90
14301;DHT22;7234;59.306;18.024;2023-11-19T08:13:47;-2.50;99.90
14301;DHT22;7234;59.306;18.024;2023-11-19T08:16:14;-2.40;99.90
14301;DHT22;7234;59.306;18.024;2023-11-19T08:18:42;-2.40;99.90
14301;DHT22;7234;59.306;18.024;2023-11-19T08:21:10;-2.70;99.90
14301;DHT22;7234;59.306;18.024;2023-11-19T08:23:37;-2.50;99.90
14301;DHT22;7234;59.306;18.024;2023-11-19T08:26:04;-2.50;99.90
14301;DHT22;7234;59.306;18.024;2023-11-19T08:28:32;-2.50;99.90
14301;DHT22;7234;59.306;18.024;2023-11-19T08:31:01;-2.40;99.90
14301;DHT22;7234;59.306;18.024;2023-11-19T08:33:29;-2.30;99.90
14301;DHT22;7234;59.306;18.024;2023-11-19T08:35:56;-2.30;99.90
14301;DHT22;7234;59.306;18.024;2023-11-19T08:38:24;-2.20;99.90
14301;DHT22;7234;59.306;18.024;2023-11-19T08:40:51;-2.00;99.90
14301;DHT22;7234;59.306;18.024;2023-11-19T08:43:18;-1.90;99.90
14301;DHT22;7234;59.306;18.024;2023-11-19T08:45:45;-1.70;99.90
14301;DHT22;7234;59.306;18.024;2023-11-19T08:48:14;-1.70;99.90
14301;DHT22;7234;59.306;18.024;2023-11-19T08:50:41;-1.70;99.90
14301;DHT22;7234;59.306;18.024;2023-11-19T08:53:08;-1.60;99.90
14301;DHT22;7234;59.306;18.024;2023-11-19T08:55:35;-1.60;99.90
14301;DHT22;7234;59.306;18.024;2023-11-19T08:58:02;-1.60;99.90
14301;DHT22;7234;59.306;18.024;2023-11-19T09:00:29;-1.50;99.90
14301;DHT22;7234;59.306;18.024;2023-11-19T09:02:58;-1.50;99.90
14301;DHT22;7234;59.306;18.024;2023-11-19T09:05:27;-1.50;99.90
14301;DHT22;7234;59.306;18.024;2023-11-19T09:07:54;-1.50;99.90
14301;DHT22;7234;59.306;18.024;2023-11-19T09:10:20;-1.50;99.90
14301;DHT22;7234;59.306;18.024;2023-11-19T09:12:47;-1.40;99.90
14301;DHT22;7234;59.306;18.024;2023-11-19T09:15:14;-1.40;99.90
14301;DHT22;7234;59.306;18.024;2023-11-19T09:17:42;-1.40;99.90
14301;DHT22;7234;59.306;18.024;2023-11-19T09:20:11;-1.30;99.90
14301;DHT22;7234;59.306;18.024;2023-11-19T09:22:42;-1.30;99.90
14301;DHT22;7234;59.306;18.024;2023-11-19T09:25:09;-1.20;99.90
14301;DHT22;7234;59.306;18.024;2023-11-19T09:27:36;-1.10;99.90
14301;DHT22;7234;59.306;18.024;2023-11-19T09:30:04;-1.10;99.90
14301;DHT22;7234;59.306;18.024;2023-11-19T09:32:31;-1.00;99.90
14301;DHT22;7234;59.306;18.024;2023-11-19T09:34:58;-1.00;99.90
14301;DHT22;7234;59.306;18.024;2023-11-19T09:37:26;-0.90;99.90
14301;DHT22;7234;59.306;18.024;2023-11-19T09:39:54;-0.80;99.90
14301;DHT22;7234;59.306;18.024;2023-11-19T09:42:22;-0.60;99.90
14301;DHT22;7234;59.306;18.024;2023-11-19T09:44:51;-0.60;99.90
14301;DHT22;7234;59.306;18.024;2023-11-19T09:47:19;-0.50;99.90
14301;DHT22;7234;59.306;18.024;2023-11-19T09:49:47;-0.50;99.90
14301;DHT22;7234;59.306;18.024;2023-11-19T09:52:15;-0.40;99.90
14301;DHT22;7234;59.306;18.024;2023-11-19T09:54:42;-0.40;99.90
14301;DHT22;7234;59.306;18.024;2023-11-19T09:57:12;-0.30;99.90
14301;DHT22;7234;59.306;18.024;2023-11-19T09:59:43;-0.10;99.90
14301;DHT22;7234;59.306;18.024;2023-11-19T10:02:11;-0.10;99.90
14301;DHT22;7234;59.306;18.024;2023-11-19T10:04:40;0.00;99.90
14301;DHT22;7234;59.306;18.024;2023-11-19T10:07:09;0.00;99.90
14301;DHT22;7234;59.306;18.024;2023-11-19T10:09:36;0.00;99.90
14301;DHT22;7234;59.306;18.024;2023-11-19T10:12:04;0.00;99.90
14301;DHT22;7234;59.306;18.024;2023-11-19T10:14:35;0.00;99.90
14301;DHT22;7234;59.306;18.024;2023-11-19T10:17:03;0.00;99.90
14301;DHT22;7234;59.306;18.024;2023-11-19T10:19:31;0.10;99.90
14301;DHT22;7234;59.306;18.024;2023-11-19T10:22:03;0.20;99.90
14301;DHT22;7234;59.306;18.024;2023-11-19T10:24:31;0.40;99.90
14301;DHT22;7234;59.306;18.024;2023-11-19T10:26:59;0.60;99.90
14301;DHT22;7234;59.306;18.024;2023-11-19T10:29:29;0.80;99.90
14301;DHT22;7234;59.306;18.024;2023-11-19T10:31:58;1.10;99.90
14301;DHT22;7234;59.306;18.024;2023-11-19T10:34:26;1.30;99.90
14301;DHT22;7234;59.306;18.024;2023-11-19T10:36:53;1.30;99.90
14301;DHT22;7234;59.306;18.024;2023-11-19T10:39:20;1.40;99.90
14301;DHT22;7234;59.306;18.024;2023-11-19T10:41:49;1.40;99.90
14301;DHT22;7234;59.306;18.024;2023-11-19T10:44:31;1.40;99.90
14301;DHT22;7234;59.306;18.024;2023-11-19T10:47:06;1.40;99.90
14301;DHT22;7234;59.306;18.024;2023-11-19T10:49:35;1.40;99.90
14301;DHT22;7234;59.306;18.024;2023-11-19T10:52:03;1.40;99.90
14301;DHT22;7234;59.306;18.024;2023-11-19T10:54:35;1.40;99.90
14301;DHT22;7234;59.306;18.024;2023-11-19T10:57:06;1.30;99.90
14301;DHT22;7234;59.306;18.024;2023-11-19T10:59:37;1.40;99.90
14301;DHT22;7234;59.306;18.024;2023-11-19T11:02:09;1.30;99.90
14301;DHT22;7234;59.306;18.024;2023-11-19T11:04:39;1.50;99.90
14301;DHT22;7234;59.306;18.024;2023-11-19T11:07:09;1.50;99.90
14301;DHT22;7234;59.306;18.024;2023-11-19T11:09:36;1.50;99.90
14301;DHT22;7234;59.306;18.024;2023-11-19T11:12:06;1.80;99.90
14301;DHT22;7234;59.306;18.024;2023-11-19T11:14:34;1.90;99.90
14301;DHT22;7234;59.306;18.024;2023-11-19T11:17:08;1.70;99.90
14301;DHT22;7234;59.306;18.024;2023-11-19T11:19:36;1.70;99.90
14301;DHT22;7234;59.306;18.024;2023-11-19T11:22:06;1.80;99.90
14301;DHT22;7234;59.306;18.024;2023-11-19T11:24:47;1.80;99.90
14301;DHT22;7234;59.306;18.024;2023-11-19T11:27:48;1.90;99.90
14301;DHT22;7234;59.306;18.024;2023-11-19T11:30:29;2.10;99.90
14301;DHT22;7234;59.306;18.024;2023-11-19T11:33:13;2.20;99.90
14301;DHT22;7234;59.306;18.024;2023-11-19T11:35:50;2.20;99.90
14301;DHT22;7234;59.306;18.024;2023-11-19T11:38:22;2.30;99.90
14301;DHT22;7234;59.306;18.024;2023-11-19T11:41:17;2.20;99.90
14301;DHT22;7234;59.306;18.024;2023-11-19T11:43:46;2.20;99.90
14301;DHT22;7234;59.306;18.024;2023-11-19T11:49:28;2.90;99.90
14301;DHT22;7234;59.306;18.024;2023-11-19T11:52:00;4.00;99.90
14301;DHT22;7234;59.306;18.024;2023-11-19T11:54:29;5.00;99.90
14301;DHT22;7234;59.306;18.024;2023-11-19T11:57:17;5.40;99.90
14301;DHT22;7234;59.306;18.024;2023-11-19T11:59:50;5.00;99.90
14301;DHT22;7234;59.306;18.024;2023-11-19T12:02:19;4.40;99.90
14301;DHT22;7234;59.306;18.024;2023-11-19T12:04:52;4.20;99.90
14301;DHT22;7234;59.306;18.024;2023-11-19T12:07:21;3.70;99.90
14301;DHT22;7234;59.306;18.024;2023-11-19T12:09:48;3.10;99.90
14301;DHT22;7234;59.306;18.024;2023-11-19T12:12:19;2.60;99.90
14301;DHT22;7234;59.306;18.024;2023-11-19T12:15:14;2.30;99.90
14301;DHT22;7234;59.306;18.024;2023-11-19T12:17:43;1.90;99.90
14301;DHT22;7234;59.306;18.024;2023-11-19T12:20:16;1.60;99.90
14301;DHT22;7234;59.306;18.024;2023-11-19T12:22:46;1.40;99.90
14301;DHT22;7234;59.306;18.024;2023-11-19T12:25:15;1.20;99.90
14301;DHT22;7234;59.306;18.024;2023-11-19T12:27:44;1.20;99.90
14301;DHT22;7234;59.306;18.024;2023-11-19T12:30:12;1.20;99.90
14301;DHT22;7234;59.306;18.024;2023-11-19T12:32:40;1.00;99.90
14301;DHT22;7234;59.306;18.024;2023-11-19T12:35:08;0.90;99.90
14301;DHT22;7234;59.306;18.024;2023-11-19T12:37:45;0.90;99.90
14301;DHT22;7234;59.306;18.024;2023-11-19T12:40:15;0.90;99.90
14301;DHT22;7234;59.306;18.024;2023-11-19T12:42:43;0.80;99.90
14301;DHT22;7234;59.306;18.024;2023-11-19T12:45:10;0.60;99.90
14301;DHT22;7234;59.306;18.024;2023-11-19T12:47:38;0.60;99.90
14301;DHT22;7234;59.306;18.024;2023-11-19T12:50:05;0.60;99.90
14301;DHT22;7234;59.306;18.024;2023-11-19T12:52:33;0.60;99.90
14301;DHT22;7234;59.306;18.024;2023-11-19T12:55:04;0.50;99.90
14301;DHT22;7234;59.306;18.024;2023-11-19T12:57:36;0.40;99.90
14301;DHT22;7234;59.306;18.024;2023-11-19T13:00:05;0.40;99.90
14301;DHT22;7234;59.306;18.024;2023-11-19T13:02:45;0.30;99.90
14301;DHT22;7234;59.306;18.024;2023-11-19T13:05:26;0.40;99.90
14301;DHT22;7234;59.306;18.024;2023-11-19T13:08:01;0.10;99.90
14301;DHT22;7234;59.306;18.024;2023-11-19T13:10:30;0.00;99.90
14301;DHT22;7234;59.306;18.024;2023-11-19T13:13:04;-0.10;99.90
14301;DHT22;7234;59.306;18.024;2023-11-19T13:15:32;-0.20;99.90
14301;DHT22;7234;59.306;18.024;2023-11-19T13:17:59;-0.20;99.90
14301;DHT22;7234;59.306;18.024;2023-11-19T13:20:26;-0.20;99.90
14301;DHT22;7234;59.306;18.024;2023-11-19T13:22:55;-0.20;99.90
14301;DHT22;7234;59.306;18.024;2023-11-19T13:25:22;-0.10;99.90
14301;DHT22;7234;59.306;18.024;2023-11-19T13:27:50;-0.10;99.90
14301;DHT22;7234;59.306;18.024;2023-11-19T13:30:17;-0.10;99.90
14301;DHT22;7234;59.306;18.024;2023-11-19T13:32:45;-0.20;99.90
14301;DHT22;7234;59.306;18.024;2023-11-19T13:35:12;-0.30;99.90
14301;DHT22;7234;59.306;18.024;2023-11-19T13:37:39;-0.20;99.90
14301;DHT22;7234;59.306;18.024;2023-11-19T13:40:07;-0.30;99.90
14301;DHT22;7234;59.306;18.024;2023-11-19T13:42:36;-0.30;99.90
14301;DHT22;7234;59.306;18.024;2023-11-19T13:45:08;-0.30;99.90
14301;DHT22;7234;59.306;18.024;2023-11-19T13:47:37;-0.40;99.90
14301;DHT22;7234;59.306;18.024;2023-11-19T13:50:08;-0.40;99.90
14301;DHT22;7234;59.306;18.024;2023-11-19T13:52:36;-0.40;99.90
14301;DHT22;7234;59.306;18.024;2023-11-19T13:55:06;-0.40;99.90
14301;DHT22;7234;59.306;18.024;2023-11-19T13:57:35;-0.50;99.90
14301;DHT22;7234;59.306;18.024;2023-11-19T14:00:03;-0.50;99.90
14301;DHT22;7234;59.306;18.024;2023-11-19T14:02:33;-0.50;99.90
14301;DHT22;7234;59.306;18.024;2023-11-19T14:05:00;-0.50;99.90
14301;DHT22;7234;59.306;18.024;2023-11-19T14:07:27;-0.50;99.90
14301;DHT22;7234;59.306;18.024;2023-11-19T14:09:54;-0.30;99.90
14301;DHT22;7234;59.306;18.024;2023-11-19T14:12:21;-0.40;99.90
14301;DHT22;7234;59.306;18.024;2023-11-19T14:14:48;-0.40;99.90
14301;DHT22;7234;59.306;18.024;2023-11-19T14:17:15;-0.40;99.90
14301;DHT22;7234;59.306;18.024;2023-11-19T14:19:45;-0.50;99.90
14301;DHT22;7234;59.306;18.024;2023-11-19T14:22:12;-0.50;99.90
14301;DHT22;7234;59.306;18.024;2023-11-19T14:24:39;-0.50;99.90
14301;DHT22;7234;59.306;18.024;2023-11-19T14:27:08;-0.50;99.90
14301;DHT22;7234;59.306;18.024;2023-11-19T14:29:35;-0.50;99.90
14301;DHT22;7234;59.306;18.024;2023-11-19T14:32:02;-0.50;99.90
14301;DHT22;7234;59.306;18.024;2023-11-19T14:34:30;-0.60;99.90
14301;DHT22;7234;59.306;18.024;2023-11-19T14:36:59;-0.60;99.90
14301;DHT22;7234;59.306;18.024;2023-11-19T14:39:27;-0.60;99.90
14301;DHT22;7234;59.306;18.024;2023-11-19T14:41:54;-0.60;99.90
14301;DHT22;7234;59.306;18.024;2023-11-19T14:44:24;-0.60;99.90
14301;DHT22;7234;59.306;18.024;2023-11-19T14:46:51;-0.60;99.90
14301;DHT22;7234;59.306;18.024;2023-11-19T14:49:18;-0.60;99.90
14301;DHT22;7234;59.306;18.024;2023-11-19T14:51:45;-0.60;99.90
14301;DHT22;7234;59.306;18.024;2023-11-19T14:54:14;-0.60;99.90
14301;DHT22;7234;59.306;18.024;2023-11-19T14:56:41;-0.60;99.90
14301;DHT22;7234;59.306;18.024;2023-11-19T14:59:08;-0.60;99.90
14301;DHT22;7234;59.306;18.024;2023-11-19T15:01:35;-0.60;99.90
14301;DHT22;7234;59.306;18.024;2023-11-19T15:04:03;-0.60;99.90
14301;DHT22;7234;59.306;18.024;2023-11-19T15:06:30;-0.60;99.90
14301;DHT22;7234;59.306;18.024;2023-11-19T15:08:59;-0.60;99.90
14301;DHT22;7234;59.306;18.024;2023-11-19T15:11:27;-0.50;99.90
14301;DHT22;7234;59.306;18.024;2023-11-19T15:13:54;-0.60;99.90
14301;DHT22;7234;59.306;18.024;2023-11-19T15:16:21;-0.60;99.90
14301;DHT22;7234;59.306;18.024;2023-11-19T15:18:56;-0.60;99.90
14301;DHT22;7234;59.306;18.024;2023-11-19T15:21:25;-0.60;99.90
14301;DHT22;7234;59.306;18.024;2023-11-19T15:23:52;-0.60;99.90
14301;DHT22;7234;59.306;18.024;2023-11-19T15:26:19;-0.60;99.90
14301;DHT22;7234;59.306;18.024;2023-11-19T15:28:48;-0.60;99.90
14301;DHT22;7234;59.306;18.024;2023-11-19T15:31:15;-0.60;99.90
14301;DHT22;7234;59.306;18.024;2023-11-19T15:33:43;-0.50;99.90
14301;DHT22;7234;59.306;18.024;2023-11-19T15:36:12;-0.50;99.90
14301;DHT22;7234;59.306;18.024;2023-11-19T15:38:39;-0.60;99.90
14301;DHT22;7234;59.306;18.024;2023-11-19T15:41:06;-0.50;99.90
14301;DHT22;7234;59.306;18.024;2023-11-19T15:43:34;-0.60;99.90
14301;DHT22;7234;59.306;18.024;2023-11-19T15:46:05;-0.50;99.90